X  Luk Metar data     EKYT Aalborg Airport
Temperatur
13°C Temperatur
12°C Dugpunkt
94% Fugtighed



Vind
4 M/S
10 MPT
16 KM/T
9 KNOB



200°
SSV
Nuværende forhold

Regn Regn
Tryk 998.98 (hPa) - 29.5 (inHg)
Sigt 6 (mil) - 9.7 (km)
Lufthavn
Lufthavnskode EKYT

Lokation: Aalborg Airport
Afstand: 54 (km)

Metar:
EKYT 151620Z AUTO 20009KT 9999 RA BKN014/// 13/12 Q0999

Tid: 15-06-2024 18:20 CEST